sensor_id;sensor_type;location;lat;lon;timestamp;P1;durP1;ratioP1;P2;durP2;ratioP2
23068;SDS011;11702;50.856;4.348;2022-10-16T00:00:28;3.78;;;1.80;;
23068;SDS011;11702;50.856;4.348;2022-10-16T00:02:54;3.25;;;1.70;;
23068;SDS011;11702;50.856;4.348;2022-10-16T00:05:20;3.25;;;1.50;;
23068;SDS011;11702;50.856;4.348;2022-10-16T00:07:46;2.53;;;1.30;;
23068;SDS011;11702;50.856;4.348;2022-10-16T00:10:11;2.28;;;1.35;;
23068;SDS011;11702;50.856;4.348;2022-10-16T00:12:37;1.45;;;1.10;;
23068;SDS011;11702;50.856;4.348;2022-10-16T00:15:02;3.33;;;2.00;;
23068;SDS011;11702;50.856;4.348;2022-10-16T00:17:30;1.75;;;1.48;;
23068;SDS011;11702;50.856;4.348;2022-10-16T00:19:55;3.22;;;1.48;;
23068;SDS011;11702;50.856;4.348;2022-10-16T00:22:21;2.42;;;1.77;;
23068;SDS011;11702;50.856;4.348;2022-10-16T00:24:47;2.08;;;1.40;;
23068;SDS011;11702;50.856;4.348;2022-10-16T00:27:13;2.10;;;1.45;;
23068;SDS011;11702;50.856;4.348;2022-10-16T00:29:39;2.08;;;1.45;;
23068;SDS011;11702;50.856;4.348;2022-10-16T00:32:04;2.38;;;1.40;;
23068;SDS011;11702;50.856;4.348;2022-10-16T00:34:30;3.15;;;1.63;;
23068;SDS011;11702;50.856;4.348;2022-10-16T00:36:57;2.40;;;1.40;;
23068;SDS011;11702;50.856;4.348;2022-10-16T00:39:22;2.92;;;1.42;;
23068;SDS011;11702;50.856;4.348;2022-10-16T00:41:49;2.20;;;1.65;;
23068;SDS011;11702;50.856;4.348;2022-10-16T00:47:22;2.75;;;1.50;;
23068;SDS011;11702;50.856;4.348;2022-10-16T00:49:53;5.22;;;1.30;;
23068;SDS011;11702;50.856;4.348;2022-10-16T00:52:24;2.15;;;1.40;;
23068;SDS011;11702;50.856;4.348;2022-10-16T00:54:51;2.75;;;1.48;;
23068;SDS011;11702;50.856;4.348;2022-10-16T00:57:18;4.32;;;1.90;;
23068;SDS011;11702;50.856;4.348;2022-10-16T00:59:46;3.00;;;1.50;;
23068;SDS011;11702;50.856;4.348;2022-10-16T01:02:14;3.58;;;1.27;;
23068;SDS011;11702;50.856;4.348;2022-10-16T01:05:20;1.77;;;1.40;;
23068;SDS011;11702;50.856;4.348;2022-10-16T01:08:12;3.80;;;1.85;;
23068;SDS011;11702;50.856;4.348;2022-10-16T01:10:53;1.45;;;1.20;;
23068;SDS011;11702;50.856;4.348;2022-10-16T01:13:30;2.83;;;1.65;;
23068;SDS011;11702;50.856;4.348;2022-10-16T01:16:15;2.05;;;1.40;;
23068;SDS011;11702;50.856;4.348;2022-10-16T01:18:54;8.35;;;1.80;;
23068;SDS011;11702;50.856;4.348;2022-10-16T01:21:44;3.70;;;1.70;;
23068;SDS011;11702;50.856;4.348;2022-10-16T01:24:32;4.25;;;1.65;;
23068;SDS011;11702;50.856;4.348;2022-10-16T01:27:13;1.70;;;1.42;;
23068;SDS011;11702;50.856;4.348;2022-10-16T01:30:04;1.67;;;1.55;;
23068;SDS011;11702;50.856;4.348;2022-10-16T01:32:39;5.22;;;1.70;;
23068;SDS011;11702;50.856;4.348;2022-10-16T01:37:51;6.05;;;1.83;;
23068;SDS011;11702;50.856;4.348;2022-10-16T01:40:21;5.38;;;2.10;;
23068;SDS011;11702;50.856;4.348;2022-10-16T01:43:12;6.75;;;1.88;;
23068;SDS011;11702;50.856;4.348;2022-10-16T01:45:39;3.30;;;1.50;;
23068;SDS011;11702;50.856;4.348;2022-10-16T01:48:06;3.83;;;1.50;;
23068;SDS011;11702;50.856;4.348;2022-10-16T01:50:35;5.25;;;1.52;;
23068;SDS011;11702;50.856;4.348;2022-10-16T01:53:05;3.93;;;1.60;;
23068;SDS011;11702;50.856;4.348;2022-10-16T01:55:37;7.75;;;1.63;;
23068;SDS011;11702;50.856;4.348;2022-10-16T01:58:09;2.17;;;1.60;;
23068;SDS011;11702;50.856;4.348;2022-10-16T02:00:37;3.80;;;1.70;;
23068;SDS011;11702;50.856;4.348;2022-10-16T02:03:05;3.00;;;1.58;;
23068;SDS011;11702;50.856;4.348;2022-10-16T02:05:34;8.73;;;1.60;;
23068;SDS011;11702;50.856;4.348;2022-10-16T02:08:05;4.38;;;1.63;;
23068;SDS011;11702;50.856;4.348;2022-10-16T02:10:31;5.40;;;1.70;;
23068;SDS011;11702;50.856;4.348;2022-10-16T02:15:55;2.95;;;1.70;;
23068;SDS011;11702;50.856;4.348;2022-10-16T02:18:20;3.95;;;1.52;;
23068;SDS011;11702;50.856;4.348;2022-10-16T02:23:36;4.50;;;1.30;;
23068;SDS011;11702;50.856;4.348;2022-10-16T02:26:12;2.90;;;1.55;;
23068;SDS011;11702;50.856;4.348;2022-10-16T02:28:45;2.00;;;1.70;;
23068;SDS011;11702;50.856;4.348;2022-10-16T02:31:18;7.05;;;1.77;;
23068;SDS011;11702;50.856;4.348;2022-10-16T02:33:51;3.15;;;1.80;;
23068;SDS011;11702;50.856;4.348;2022-10-16T02:36:19;7.07;;;2.20;;
23068;SDS011;11702;50.856;4.348;2022-10-16T02:38:46;7.40;;;2.00;;
23068;SDS011;11702;50.856;4.348;2022-10-16T02:41:12;3.53;;;1.85;;
23068;SDS011;11702;50.856;4.348;2022-10-16T02:43:39;3.55;;;1.73;;
23068;SDS011;11702;50.856;4.348;2022-10-16T02:46:04;2.15;;;1.52;;
23068;SDS011;11702;50.856;4.348;2022-10-16T02:48:30;2.72;;;1.67;;
23068;SDS011;11702;50.856;4.348;2022-10-16T02:50:55;7.03;;;1.85;;
23068;SDS011;11702;50.856;4.348;2022-10-16T02:53:22;2.50;;;1.65;;
23068;SDS011;11702;50.856;4.348;2022-10-16T02:55:47;2.35;;;1.52;;
23068;SDS011;11702;50.856;4.348;2022-10-16T02:58:13;5.35;;;2.10;;
23068;SDS011;11702;50.856;4.348;2022-10-16T03:00:40;3.03;;;1.75;;
23068;SDS011;11702;50.856;4.348;2022-10-16T03:03:06;2.92;;;2.20;;
23068;SDS011;11702;50.856;4.348;2022-10-16T03:05:32;5.20;;;2.42;;
23068;SDS011;11702;50.856;4.348;2022-10-16T03:07:58;3.95;;;1.60;;
23068;SDS011;11702;50.856;4.348;2022-10-16T03:10:25;3.10;;;1.88;;
23068;SDS011;11702;50.856;4.348;2022-10-16T03:12:51;4.07;;;2.08;;
23068;SDS011;11702;50.856;4.348;2022-10-16T03:15:17;2.30;;;1.80;;
23068;SDS011;11702;50.856;4.348;2022-10-16T03:17:43;3.85;;;1.80;;
23068;SDS011;11702;50.856;4.348;2022-10-16T03:20:08;3.88;;;2.00;;
23068;SDS011;11702;50.856;4.348;2022-10-16T03:22:34;3.75;;;1.73;;
23068;SDS011;11702;50.856;4.348;2022-10-16T03:25:00;8.02;;;2.50;;
23068;SDS011;11702;50.856;4.348;2022-10-16T03:27:25;4.40;;;2.00;;
23068;SDS011;11702;50.856;4.348;2022-10-16T03:29:51;2.55;;;1.85;;
23068;SDS011;11702;50.856;4.348;2022-10-16T03:32:17;8.80;;;2.28;;
23068;SDS011;11702;50.856;4.348;2022-10-16T03:34:43;4.53;;;2.08;;
23068;SDS011;11702;50.856;4.348;2022-10-16T03:37:09;9.00;;;2.50;;
23068;SDS011;11702;50.856;4.348;2022-10-16T03:39:34;6.70;;;2.28;;
23068;SDS011;11702;50.856;4.348;2022-10-16T03:42:00;5.10;;;1.90;;
23068;SDS011;11702;50.856;4.348;2022-10-16T03:44:25;2.33;;;2.00;;
23068;SDS011;11702;50.856;4.348;2022-10-16T03:46:51;3.40;;;1.95;;
23068;SDS011;11702;50.856;4.348;2022-10-16T03:49:16;3.75;;;2.00;;
23068;SDS011;11702;50.856;4.348;2022-10-16T03:51:42;3.20;;;1.80;;
23068;SDS011;11702;50.856;4.348;2022-10-16T03:54:09;5.43;;;1.98;;
23068;SDS011;11702;50.856;4.348;2022-10-16T03:56:35;8.07;;;1.77;;
23068;SDS011;11702;50.856;4.348;2022-10-16T03:59:01;4.53;;;1.85;;
23068;SDS011;11702;50.856;4.348;2022-10-16T04:01:26;6.22;;;2.08;;
23068;SDS011;11702;50.856;4.348;2022-10-16T04:03:53;5.70;;;2.13;;
23068;SDS011;11702;50.856;4.348;2022-10-16T04:06:19;3.10;;;1.90;;
23068;SDS011;11702;50.856;4.348;2022-10-16T04:08:44;5.03;;;1.90;;
23068;SDS011;11702;50.856;4.348;2022-10-16T04:11:11;4.82;;;1.85;;
23068;SDS011;11702;50.856;4.348;2022-10-16T04:13:37;3.92;;;1.85;;
23068;SDS011;11702;50.856;4.348;2022-10-16T04:16:03;7.07;;;2.33;;
23068;SDS011;11702;50.856;4.348;2022-10-16T04:18:28;4.57;;;1.95;;
23068;SDS011;11702;50.856;4.348;2022-10-16T04:20:54;3.90;;;2.20;;
23068;SDS011;11702;50.856;4.348;2022-10-16T04:23:20;5.60;;;2.05;;
23068;SDS011;11702;50.856;4.348;2022-10-16T04:25:47;6.40;;;2.10;;
23068;SDS011;11702;50.856;4.348;2022-10-16T04:28:13;5.72;;;2.22;;
23068;SDS011;11702;50.856;4.348;2022-10-16T04:30:39;4.10;;;1.95;;
23068;SDS011;11702;50.856;4.348;2022-10-16T04:33:04;4.38;;;2.17;;
23068;SDS011;11702;50.856;4.348;2022-10-16T04:35:30;6.25;;;2.17;;
23068;SDS011;11702;50.856;4.348;2022-10-16T04:37:59;3.75;;;2.05;;
23068;SDS011;11702;50.856;4.348;2022-10-16T04:40:24;4.72;;;2.00;;
23068;SDS011;11702;50.856;4.348;2022-10-16T04:42:50;6.20;;;1.75;;
23068;SDS011;11702;50.856;4.348;2022-10-16T04:45:15;4.55;;;2.15;;
23068;SDS011;11702;50.856;4.348;2022-10-16T04:47:41;7.00;;;2.03;;
23068;SDS011;11702;50.856;4.348;2022-10-16T04:50:06;3.22;;;2.00;;
23068;SDS011;11702;50.856;4.348;2022-10-16T04:52:33;5.78;;;2.08;;
23068;SDS011;11702;50.856;4.348;2022-10-16T04:54:58;8.82;;;2.47;;
23068;SDS011;11702;50.856;4.348;2022-10-16T04:57:27;4.38;;;2.50;;
23068;SDS011;11702;50.856;4.348;2022-10-16T04:59:53;7.85;;;2.30;;
23068;SDS011;11702;50.856;4.348;2022-10-16T05:02:19;5.95;;;2.28;;
23068;SDS011;11702;50.856;4.348;2022-10-16T05:04:45;4.80;;;2.22;;
23068;SDS011;11702;50.856;4.348;2022-10-16T05:07:10;7.47;;;2.30;;
23068;SDS011;11702;50.856;4.348;2022-10-16T05:09:36;5.43;;;2.40;;
23068;SDS011;11702;50.856;4.348;2022-10-16T05:12:02;5.10;;;2.60;;
23068;SDS011;11702;50.856;4.348;2022-10-16T05:14:28;4.53;;;2.30;;
23068;SDS011;11702;50.856;4.348;2022-10-16T05:16:54;7.07;;;3.10;;
23068;SDS011;11702;50.856;4.348;2022-10-16T05:19:19;6.25;;;3.03;;
23068;SDS011;11702;50.856;4.348;2022-10-16T05:21:45;4.32;;;2.65;;
23068;SDS011;11702;50.856;4.348;2022-10-16T05:24:11;9.10;;;3.50;;
23068;SDS011;11702;50.856;4.348;2022-10-16T05:26:36;6.85;;;2.70;;
23068;SDS011;11702;50.856;4.348;2022-10-16T05:29:02;6.47;;;3.30;;
23068;SDS011;11702;50.856;4.348;2022-10-16T05:31:28;5.95;;;3.10;;
23068;SDS011;11702;50.856;4.348;2022-10-16T05:33:57;6.70;;;2.95;;
23068;SDS011;11702;50.856;4.348;2022-10-16T05:36:26;4.70;;;3.38;;
23068;SDS011;11702;50.856;4.348;2022-10-16T05:38:52;4.43;;;2.97;;
23068;SDS011;11702;50.856;4.348;2022-10-16T05:41:17;7.93;;;3.28;;
23068;SDS011;11702;50.856;4.348;2022-10-16T05:43:49;6.95;;;3.92;;
23068;SDS011;11702;50.856;4.348;2022-10-16T05:46:15;9.93;;;2.97;;
23068;SDS011;11702;50.856;4.348;2022-10-16T05:48:42;8.70;;;2.70;;
23068;SDS011;11702;50.856;4.348;2022-10-16T05:51:09;6.22;;;3.15;;
23068;SDS011;11702;50.856;4.348;2022-10-16T05:53:37;7.30;;;4.22;;
23068;SDS011;11702;50.856;4.348;2022-10-16T05:56:04;7.88;;;2.90;;
23068;SDS011;11702;50.856;4.348;2022-10-16T05:58:32;6.82;;;3.38;;
23068;SDS011;11702;50.856;4.348;2022-10-16T06:01:04;5.93;;;3.13;;
23068;SDS011;11702;50.856;4.348;2022-10-16T06:03:32;6.13;;;3.00;;
23068;SDS011;11702;50.856;4.348;2022-10-16T06:05:58;6.30;;;2.67;;
23068;SDS011;11702;50.856;4.348;2022-10-16T06:08:24;5.35;;;3.10;;
23068;SDS011;11702;50.856;4.348;2022-10-16T06:11:03;4.60;;;2.75;;
23068;SDS011;11702;50.856;4.348;2022-10-16T06:13:30;7.97;;;3.17;;
23068;SDS011;11702;50.856;4.348;2022-10-16T06:16:00;5.07;;;2.75;;
23068;SDS011;11702;50.856;4.348;2022-10-16T06:18:26;5.15;;;3.10;;
23068;SDS011;11702;50.856;4.348;2022-10-16T06:20:53;7.50;;;2.80;;
23068;SDS011;11702;50.856;4.348;2022-10-16T06:23:19;6.63;;;3.08;;
23068;SDS011;11702;50.856;4.348;2022-10-16T06:25:45;6.50;;;2.60;;
23068;SDS011;11702;50.856;4.348;2022-10-16T06:28:11;7.38;;;2.75;;
23068;SDS011;11702;50.856;4.348;2022-10-16T06:30:39;4.05;;;2.83;;
23068;SDS011;11702;50.856;4.348;2022-10-16T06:33:05;7.20;;;2.42;;
23068;SDS011;11702;50.856;4.348;2022-10-16T06:35:30;5.68;;;2.88;;
23068;SDS011;11702;50.856;4.348;2022-10-16T06:37:57;6.00;;;2.80;;
23068;SDS011;11702;50.856;4.348;2022-10-16T06:40:23;3.70;;;2.60;;
23068;SDS011;11702;50.856;4.348;2022-10-16T06:42:48;5.47;;;3.17;;
23068;SDS011;11702;50.856;4.348;2022-10-16T06:45:15;8.32;;;3.20;;
23068;SDS011;11702;50.856;4.348;2022-10-16T06:47:40;7.20;;;2.78;;
23068;SDS011;11702;50.856;4.348;2022-10-16T06:50:06;6.10;;;2.70;;
23068;SDS011;11702;50.856;4.348;2022-10-16T06:52:33;4.03;;;2.72;;
23068;SDS011;11702;50.856;4.348;2022-10-16T06:54:59;5.30;;;2.33;;
23068;SDS011;11702;50.856;4.348;2022-10-16T06:57:24;6.53;;;3.00;;
23068;SDS011;11702;50.856;4.348;2022-10-16T06:59:51;6.65;;;2.60;;
23068;SDS011;11702;50.856;4.348;2022-10-16T07:02:16;5.72;;;2.70;;
23068;SDS011;11702;50.856;4.348;2022-10-16T07:04:42;5.10;;;2.10;;
23068;SDS011;11702;50.856;4.348;2022-10-16T07:07:07;4.43;;;2.97;;
23068;SDS011;11702;50.856;4.348;2022-10-16T07:09:33;9.38;;;3.05;;
23068;SDS011;11702;50.856;4.348;2022-10-16T07:11:58;5.75;;;2.25;;
23068;SDS011;11702;50.856;4.348;2022-10-16T07:14:24;5.43;;;2.33;;
23068;SDS011;11702;50.856;4.348;2022-10-16T07:16:50;5.47;;;2.85;;
23068;SDS011;11702;50.856;4.348;2022-10-16T07:19:15;11.82;;;2.60;;
23068;SDS011;11702;50.856;4.348;2022-10-16T07:21:42;6.45;;;2.63;;
23068;SDS011;11702;50.856;4.348;2022-10-16T07:24:13;7.82;;;2.72;;
23068;SDS011;11702;50.856;4.348;2022-10-16T07:26:41;4.93;;;2.40;;
23068;SDS011;11702;50.856;4.348;2022-10-16T07:29:13;7.97;;;2.58;;
23068;SDS011;11702;50.856;4.348;2022-10-16T07:31:40;5.05;;;2.28;;
23068;SDS011;11702;50.856;4.348;2022-10-16T07:34:10;5.38;;;2.40;;
23068;SDS011;11702;50.856;4.348;2022-10-16T07:37:11;5.13;;;2.45;;
23068;SDS011;11702;50.856;4.348;2022-10-16T07:39:40;3.95;;;2.30;;
23068;SDS011;11702;50.856;4.348;2022-10-16T07:42:05;4.95;;;2.00;;
23068;SDS011;11702;50.856;4.348;2022-10-16T07:44:32;3.13;;;2.08;;
23068;SDS011;11702;50.856;4.348;2022-10-16T07:46:58;4.13;;;2.30;;
23068;SDS011;11702;50.856;4.348;2022-10-16T07:49:23;4.63;;;2.20;;
23068;SDS011;11702;50.856;4.348;2022-10-16T07:51:49;9.45;;;2.58;;
23068;SDS011;11702;50.856;4.348;2022-10-16T07:54:15;4.20;;;2.25;;
23068;SDS011;11702;50.856;4.348;2022-10-16T07:56:40;4.13;;;2.28;;
23068;SDS011;11702;50.856;4.348;2022-10-16T07:59:06;7.32;;;2.33;;
23068;SDS011;11702;50.856;4.348;2022-10-16T08:01:32;4.18;;;2.30;;
23068;SDS011;11702;50.856;4.348;2022-10-16T08:03:58;6.93;;;2.60;;
23068;SDS011;11702;50.856;4.348;2022-10-16T08:06:23;6.78;;;2.58;;
23068;SDS011;11702;50.856;4.348;2022-10-16T08:08:49;5.20;;;2.55;;
23068;SDS011;11702;50.856;4.348;2022-10-16T08:11:15;4.18;;;2.10;;
23068;SDS011;11702;50.856;4.348;2022-10-16T08:13:45;4.20;;;2.33;;
23068;SDS011;11702;50.856;4.348;2022-10-16T08:16:11;6.78;;;2.40;;
23068;SDS011;11702;50.856;4.348;2022-10-16T08:18:37;5.75;;;2.40;;
23068;SDS011;11702;50.856;4.348;2022-10-16T08:21:04;7.15;;;3.15;;
23068;SDS011;11702;50.856;4.348;2022-10-16T08:23:30;6.22;;;2.15;;
23068;SDS011;11702;50.856;4.348;2022-10-16T08:26:03;3.80;;;2.17;;
23068;SDS011;11702;50.856;4.348;2022-10-16T08:28:31;4.45;;;2.40;;
23068;SDS011;11702;50.856;4.348;2022-10-16T08:31:05;4.68;;;2.85;;
23068;SDS011;11702;50.856;4.348;2022-10-16T08:33:46;8.00;;;2.85;;
23068;SDS011;11702;50.856;4.348;2022-10-16T08:36:14;8.50;;;4.00;;
23068;SDS011;11702;50.856;4.348;2022-10-16T08:39:08;5.65;;;2.42;;
23068;SDS011;11702;50.856;4.348;2022-10-16T08:44:37;3.17;;;1.98;;
23068;SDS011;11702;50.856;4.348;2022-10-16T08:50:02;4.03;;;2.00;;
23068;SDS011;11702;50.856;4.348;2022-10-16T08:52:38;5.30;;;1.95;;
23068;SDS011;11702;50.856;4.348;2022-10-16T08:55:05;7.50;;;2.65;;
23068;SDS011;11702;50.856;4.348;2022-10-16T08:57:32;5.57;;;2.22;;
23068;SDS011;11702;50.856;4.348;2022-10-16T09:00:00;8.23;;;3.35;;
23068;SDS011;11702;50.856;4.348;2022-10-16T09:02:37;5.43;;;2.63;;
23068;SDS011;11702;50.856;4.348;2022-10-16T09:08:21;3.75;;;2.55;;
23068;SDS011;11702;50.856;4.348;2022-10-16T09:11:51;10.73;;;3.67;;
23068;SDS011;11702;50.856;4.348;2022-10-16T09:17:04;7.10;;;2.55;;
23068;SDS011;11702;50.856;4.348;2022-10-16T09:19:51;5.35;;;2.30;;
23068;SDS011;11702;50.856;4.348;2022-10-16T09:22:25;7.70;;;2.10;;
23068;SDS011;11702;50.856;4.348;2022-10-16T09:24:54;8.43;;;1.90;;
23068;SDS011;11702;50.856;4.348;2022-10-16T09:27:24;8.05;;;1.83;;
23068;SDS011;11702;50.856;4.348;2022-10-16T09:29:51;7.03;;;2.15;;
23068;SDS011;11702;50.856;4.348;2022-10-16T09:32:19;8.93;;;2.00;;
23068;SDS011;11702;50.856;4.348;2022-10-16T09:34:48;4.13;;;2.17;;
23068;SDS011;11702;50.856;4.348;2022-10-16T09:37:17;10.50;;;1.80;;
23068;SDS011;11702;50.856;4.348;2022-10-16T09:39:48;6.78;;;1.75;;
23068;SDS011;11702;50.856;4.348;2022-10-16T09:42:19;7.30;;;1.95;;
23068;SDS011;11702;50.856;4.348;2022-10-16T09:45:01;7.82;;;2.30;;
23068;SDS011;11702;50.856;4.348;2022-10-16T09:47:29;5.05;;;2.03;;
23068;SDS011;11702;50.856;4.348;2022-10-16T09:49:57;6.70;;;2.40;;
23068;SDS011;11702;50.856;4.348;2022-10-16T09:52:29;7.88;;;2.30;;
23068;SDS011;11702;50.856;4.348;2022-10-16T09:54:59;6.97;;;2.33;;
23068;SDS011;11702;50.856;4.348;2022-10-16T09:57:26;8.38;;;1.92;;
23068;SDS011;11702;50.856;4.348;2022-10-16T09:59:53;3.78;;;1.40;;
23068;SDS011;11702;50.856;4.348;2022-10-16T10:02:29;10.27;;;2.15;;
23068;SDS011;11702;50.856;4.348;2022-10-16T10:05:03;6.00;;;2.13;;
23068;SDS011;11702;50.856;4.348;2022-10-16T10:07:32;2.88;;;1.55;;
23068;SDS011;11702;50.856;4.348;2022-10-16T10:10:18;8.00;;;1.73;;
23068;SDS011;11702;50.856;4.348;2022-10-16T10:12:49;9.13;;;2.85;;
23068;SDS011;11702;50.856;4.348;2022-10-16T10:15:15;6.40;;;2.08;;
23068;SDS011;11702;50.856;4.348;2022-10-16T10:17:55;4.25;;;1.52;;
23068;SDS011;11702;50.856;4.348;2022-10-16T10:22:53;7.30;;;2.20;;
23068;SDS011;11702;50.856;4.348;2022-10-16T10:33:51;5.80;;;1.80;;
23068;SDS011;11702;50.856;4.348;2022-10-16T10:44:16;7.72;;;1.73;;
23068;SDS011;11702;50.856;4.348;2022-10-16T10:49:34;3.20;;;1.58;;
23068;SDS011;11702;50.856;4.348;2022-10-16T10:54:53;6.70;;;1.80;;
23068;SDS011;11702;50.856;4.348;2022-10-16T10:57:38;6.82;;;1.85;;
23068;SDS011;11702;50.856;4.348;2022-10-16T11:00:28;8.05;;;2.47;;
23068;SDS011;11702;50.856;4.348;2022-10-16T11:08:48;6.38;;;1.85;;
23068;SDS011;11702;50.856;4.348;2022-10-16T11:14:30;3.20;;;1.45;;
23068;SDS011;11702;50.856;4.348;2022-10-16T11:17:12;3.95;;;1.73;;
23068;SDS011;11702;50.856;4.348;2022-10-16T11:19:56;7.35;;;2.08;;
23068;SDS011;11702;50.856;4.348;2022-10-16T11:22:30;5.53;;;1.48;;
23068;SDS011;11702;50.856;4.348;2022-10-16T11:27:57;4.07;;;1.20;;
23068;SDS011;11702;50.856;4.348;2022-10-16T11:30:28;2.28;;;1.08;;
23068;SDS011;11702;50.856;4.348;2022-10-16T11:35:53;3.72;;;1.20;;
23068;SDS011;11702;50.856;4.348;2022-10-16T11:38:46;7.15;;;1.98;;
23068;SDS011;11702;50.856;4.348;2022-10-16T11:41:32;6.57;;;1.67;;
23068;SDS011;11702;50.856;4.348;2022-10-16T11:44:32;3.30;;;1.90;;
23068;SDS011;11702;50.856;4.348;2022-10-16T11:47:09;3.72;;;1.52;;
23068;SDS011;11702;50.856;4.348;2022-10-16T11:49:44;5.32;;;1.40;;
23068;SDS011;11702;50.856;4.348;2022-10-16T11:55:05;4.38;;;1.60;;
23068;SDS011;11702;50.856;4.348;2022-10-16T11:57:54;9.52;;;1.80;;
23068;SDS011;11702;50.856;4.348;2022-10-16T12:00:28;7.78;;;1.85;;
23068;SDS011;11702;50.856;4.348;2022-10-16T12:08:44;5.90;;;2.10;;
23068;SDS011;11702;50.856;4.348;2022-10-16T12:11:24;6.50;;;2.38;;
23068;SDS011;11702;50.856;4.348;2022-10-16T12:16:37;7.28;;;2.30;;
23068;SDS011;11702;50.856;4.348;2022-10-16T12:19:23;7.88;;;2.15;;
23068;SDS011;11702;50.856;4.348;2022-10-16T12:21:50;4.60;;;1.67;;
23068;SDS011;11702;50.856;4.348;2022-10-16T12:24:31;3.35;;;1.60;;
23068;SDS011;11702;50.856;4.348;2022-10-16T12:26:57;5.43;;;1.80;;
23068;SDS011;11702;50.856;4.348;2022-10-16T12:29:34;4.20;;;1.40;;
23068;SDS011;11702;50.856;4.348;2022-10-16T12:32:00;3.35;;;1.40;;
23068;SDS011;11702;50.856;4.348;2022-10-16T12:37:11;3.42;;;1.27;;
23068;SDS011;11702;50.856;4.348;2022-10-16T12:39:45;5.18;;;1.58;;
23068;SDS011;11702;50.856;4.348;2022-10-16T12:44:54;5.18;;;1.70;;
23068;SDS011;11702;50.856;4.348;2022-10-16T12:50:23;5.90;;;2.30;;
23068;SDS011;11702;50.856;4.348;2022-10-16T12:52:51;6.35;;;1.88;;
23068;SDS011;11702;50.856;4.348;2022-10-16T12:55:18;3.65;;;1.40;;
23068;SDS011;11702;50.856;4.348;2022-10-16T13:06:19;5.90;;;1.42;;
23068;SDS011;11702;50.856;4.348;2022-10-16T13:19:40;7.78;;;1.60;;
23068;SDS011;11702;50.856;4.348;2022-10-16T13:22:33;4.70;;;1.55;;
23068;SDS011;11702;50.856;4.348;2022-10-16T13:30:23;4.47;;;1.58;;
23068;SDS011;11702;50.856;4.348;2022-10-16T13:32:54;4.97;;;1.70;;
23068;SDS011;11702;50.856;4.348;2022-10-16T13:35:28;5.20;;;1.48;;
23068;SDS011;11702;50.856;4.348;2022-10-16T13:38:29;4.47;;;1.20;;
23068;SDS011;11702;50.856;4.348;2022-10-16T13:40:50;4.93;;;1.38;;
23068;SDS011;11702;50.856;4.348;2022-10-16T13:43:46;5.57;;;1.70;;
23068;SDS011;11702;50.856;4.348;2022-10-16T13:46:21;3.90;;;1.48;;
23068;SDS011;11702;50.856;4.348;2022-10-16T13:48:58;4.82;;;1.92;;
23068;SDS011;11702;50.856;4.348;2022-10-16T13:51:24;4.97;;;1.40;;
23068;SDS011;11702;50.856;4.348;2022-10-16T13:53:52;8.75;;;1.70;;
23068;SDS011;11702;50.856;4.348;2022-10-16T13:56:21;5.95;;;1.80;;
23068;SDS011;11702;50.856;4.348;2022-10-16T13:58:58;5.85;;;1.77;;
23068;SDS011;11702;50.856;4.348;2022-10-16T14:01:44;4.78;;;1.90;;
23068;SDS011;11702;50.856;4.348;2022-10-16T14:04:10;4.63;;;1.65;;
23068;SDS011;11702;50.856;4.348;2022-10-16T14:06:40;5.43;;;2.00;;
23068;SDS011;11702;50.856;4.348;2022-10-16T14:09:22;5.40;;;2.00;;
23068;SDS011;11702;50.856;4.348;2022-10-16T14:11:53;8.98;;;2.15;;
23068;SDS011;11702;50.856;4.348;2022-10-16T14:14:23;4.68;;;1.70;;
23068;SDS011;11702;50.856;4.348;2022-10-16T14:16:51;6.22;;;2.38;;
23068;SDS011;11702;50.856;4.348;2022-10-16T14:19:27;6.68;;;2.17;;
23068;SDS011;11702;50.856;4.348;2022-10-16T14:21:54;4.82;;;1.80;;
23068;SDS011;11702;50.856;4.348;2022-10-16T14:26:55;8.98;;;5.22;;
23068;SDS011;11702;50.856;4.348;2022-10-16T14:29:21;29.35;;;16.13;;
23068;SDS011;11702;50.856;4.348;2022-10-16T14:31:58;32.55;;;19.70;;
23068;SDS011;11702;50.856;4.348;2022-10-16T14:34:30;17.85;;;9.02;;
23068;SDS011;11702;50.856;4.348;2022-10-16T14:36:58;17.05;;;6.32;;
23068;SDS011;11702;50.856;4.348;2022-10-16T14:39:29;6.15;;;2.20;;
23068;SDS011;11702;50.856;4.348;2022-10-16T14:41:55;3.38;;;1.75;;
23068;SDS011;11702;50.856;4.348;2022-10-16T14:44:25;5.30;;;1.75;;
23068;SDS011;11702;50.856;4.348;2022-10-16T14:46:57;6.60;;;2.10;;
23068;SDS011;11702;50.856;4.348;2022-10-16T14:49:24;5.18;;;1.45;;
23068;SDS011;11702;50.856;4.348;2022-10-16T14:51:50;7.30;;;1.40;;
23068;SDS011;11702;50.856;4.348;2022-10-16T14:54:18;4.10;;;1.83;;
23068;SDS011;11702;50.856;4.348;2022-10-16T14:59:18;7.32;;;1.90;;
23068;SDS011;11702;50.856;4.348;2022-10-16T15:01:55;5.65;;;2.10;;
23068;SDS011;11702;50.856;4.348;2022-10-16T15:04:21;6.68;;;2.00;;
23068;SDS011;11702;50.856;4.348;2022-10-16T15:06:46;5.95;;;2.45;;
23068;SDS011;11702;50.856;4.348;2022-10-16T15:09:12;3.83;;;1.98;;
23068;SDS011;11702;50.856;4.348;2022-10-16T15:11:38;7.95;;;2.20;;
23068;SDS011;11702;50.856;4.348;2022-10-16T15:14:04;5.72;;;2.10;;
23068;SDS011;11702;50.856;4.348;2022-10-16T15:16:30;5.10;;;2.10;;
23068;SDS011;11702;50.856;4.348;2022-10-16T15:18:56;5.13;;;1.80;;
23068;SDS011;11702;50.856;4.348;2022-10-16T15:21:27;8.95;;;2.15;;
23068;SDS011;11702;50.856;4.348;2022-10-16T15:23:55;8.05;;;1.77;;
23068;SDS011;11702;50.856;4.348;2022-10-16T15:26:22;6.43;;;1.88;;
23068;SDS011;11702;50.856;4.348;2022-10-16T15:28:48;6.28;;;2.10;;
23068;SDS011;11702;50.856;4.348;2022-10-16T15:31:14;4.15;;;1.80;;
23068;SDS011;11702;50.856;4.348;2022-10-16T15:33:39;7.30;;;2.30;;
23068;SDS011;11702;50.856;4.348;2022-10-16T15:36:05;6.15;;;1.80;;
23068;SDS011;11702;50.856;4.348;2022-10-16T15:38:31;8.75;;;2.35;;
23068;SDS011;11702;50.856;4.348;2022-10-16T15:40:56;5.78;;;2.10;;
23068;SDS011;11702;50.856;4.348;2022-10-16T15:43:22;3.35;;;1.67;;
23068;SDS011;11702;50.856;4.348;2022-10-16T15:46:01;3.83;;;1.42;;
23068;SDS011;11702;50.856;4.348;2022-10-16T15:50:54;3.33;;;1.45;;
23068;SDS011;11702;50.856;4.348;2022-10-16T15:53:20;9.77;;;2.03;;
23068;SDS011;11702;50.856;4.348;2022-10-16T15:55:46;5.32;;;1.88;;
23068;SDS011;11702;50.856;4.348;2022-10-16T15:58:12;6.75;;;1.95;;
23068;SDS011;11702;50.856;4.348;2022-10-16T16:00:37;5.85;;;2.13;;
23068;SDS011;11702;50.856;4.348;2022-10-16T16:03:03;5.45;;;2.10;;
23068;SDS011;11702;50.856;4.348;2022-10-16T16:05:29;5.28;;;1.85;;
23068;SDS011;11702;50.856;4.348;2022-10-16T16:07:55;5.65;;;2.15;;
23068;SDS011;11702;50.856;4.348;2022-10-16T16:10:21;7.05;;;2.20;;
23068;SDS011;11702;50.856;4.348;2022-10-16T16:12:47;5.85;;;1.80;;
23068;SDS011;11702;50.856;4.348;2022-10-16T16:15:18;6.25;;;2.30;;
23068;SDS011;11702;50.856;4.348;2022-10-16T16:17:44;4.97;;;1.85;;
23068;SDS011;11702;50.856;4.348;2022-10-16T16:20:10;6.38;;;1.88;;
23068;SDS011;11702;50.856;4.348;2022-10-16T16:22:36;2.63;;;1.70;;
23068;SDS011;11702;50.856;4.348;2022-10-16T16:25:01;5.75;;;2.08;;
23068;SDS011;11702;50.856;4.348;2022-10-16T16:27:27;7.60;;;2.05;;
23068;SDS011;11702;50.856;4.348;2022-10-16T16:29:54;15.07;;;3.22;;
23068;SDS011;11702;50.856;4.348;2022-10-16T16:32:20;7.25;;;2.22;;
23068;SDS011;11702;50.856;4.348;2022-10-16T16:34:46;5.60;;;2.28;;
23068;SDS011;11702;50.856;4.348;2022-10-16T16:37:12;9.68;;;1.95;;
23068;SDS011;11702;50.856;4.348;2022-10-16T16:39:37;5.30;;;2.05;;
23068;SDS011;11702;50.856;4.348;2022-10-16T16:42:03;8.05;;;2.20;;
23068;SDS011;11702;50.856;4.348;2022-10-16T16:44:31;7.63;;;2.35;;
23068;SDS011;11702;50.856;4.348;2022-10-16T16:46:57;6.28;;;1.83;;
23068;SDS011;11702;50.856;4.348;2022-10-16T16:49:22;5.40;;;1.85;;
23068;SDS011;11702;50.856;4.348;2022-10-16T16:51:48;4.90;;;2.20;;
23068;SDS011;11702;50.856;4.348;2022-10-16T16:54:14;3.78;;;2.22;;
23068;SDS011;11702;50.856;4.348;2022-10-16T16:56:40;6.63;;;1.98;;